sensor_id;sensor_type;location;lat;lon;timestamp;P1;durP1;ratioP1;P2;durP2;ratioP2
16510;SDS011;8368;48.772;8.754;2023-04-25T00:02:20;1.63;;;1.60;;
16510;SDS011;8368;48.772;8.754;2023-04-25T00:04:47;1.47;;;1.47;;
16510;SDS011;8368;48.772;8.754;2023-04-25T00:07:14;1.83;;;1.73;;
16510;SDS011;8368;48.772;8.754;2023-04-25T00:09:40;1.87;;;1.80;;
16510;SDS011;8368;48.772;8.754;2023-04-25T00:12:06;1.40;;;1.40;;
16510;SDS011;8368;48.772;8.754;2023-04-25T00:14:32;1.40;;;1.40;;
16510;SDS011;8368;48.772;8.754;2023-04-25T00:16:59;1.27;;;1.27;;
16510;SDS011;8368;48.772;8.754;2023-04-25T00:19:24;1.80;;;1.70;;
16510;SDS011;8368;48.772;8.754;2023-04-25T00:21:51;1.70;;;1.60;;
16510;SDS011;8368;48.772;8.754;2023-04-25T00:24:18;1.90;;;1.80;;
16510;SDS011;8368;48.772;8.754;2023-04-25T00:26:44;2.40;;;2.30;;
16510;SDS011;8368;48.772;8.754;2023-04-25T00:29:10;2.13;;;1.93;;
16510;SDS011;8368;48.772;8.754;2023-04-25T00:31:35;1.83;;;1.73;;
16510;SDS011;8368;48.772;8.754;2023-04-25T00:34:01;6.57;;;2.33;;
16510;SDS011;8368;48.772;8.754;2023-04-25T00:36:26;2.03;;;1.93;;
16510;SDS011;8368;48.772;8.754;2023-04-25T00:38:52;2.23;;;2.03;;
16510;SDS011;8368;48.772;8.754;2023-04-25T00:41:19;1.83;;;1.73;;
16510;SDS011;8368;48.772;8.754;2023-04-25T00:43:45;1.73;;;1.67;;
16510;SDS011;8368;48.772;8.754;2023-04-25T00:46:12;1.93;;;1.93;;
16510;SDS011;8368;48.772;8.754;2023-04-25T00:48:38;2.13;;;1.93;;
16510;SDS011;8368;48.772;8.754;2023-04-25T00:51:03;2.43;;;1.57;;
16510;SDS011;8368;48.772;8.754;2023-04-25T00:53:29;1.93;;;1.83;;
16510;SDS011;8368;48.772;8.754;2023-04-25T00:55:56;1.63;;;1.63;;
16510;SDS011;8368;48.772;8.754;2023-04-25T00:58:22;3.70;;;1.77;;
16510;SDS011;8368;48.772;8.754;2023-04-25T01:00:48;1.43;;;1.43;;
16510;SDS011;8368;48.772;8.754;2023-04-25T01:03:17;2.50;;;2.20;;
16510;SDS011;8368;48.772;8.754;2023-04-25T01:05:45;1.70;;;1.60;;
16510;SDS011;8368;48.772;8.754;2023-04-25T01:08:11;1.83;;;1.73;;
16510;SDS011;8368;48.772;8.754;2023-04-25T01:10:37;1.50;;;1.50;;
16510;SDS011;8368;48.772;8.754;2023-04-25T01:13:03;1.83;;;1.77;;
16510;SDS011;8368;48.772;8.754;2023-04-25T01:15:29;1.53;;;1.53;;
16510;SDS011;8368;48.772;8.754;2023-04-25T01:17:55;2.03;;;1.93;;
16510;SDS011;8368;48.772;8.754;2023-04-25T01:20:22;1.97;;;1.87;;
16510;SDS011;8368;48.772;8.754;2023-04-25T01:22:48;1.63;;;1.53;;
16510;SDS011;8368;48.772;8.754;2023-04-25T01:25:15;1.57;;;1.57;;
16510;SDS011;8368;48.772;8.754;2023-04-25T01:27:41;2.97;;;2.20;;
16510;SDS011;8368;48.772;8.754;2023-04-25T01:30:08;1.37;;;1.37;;
16510;SDS011;8368;48.772;8.754;2023-04-25T01:32:34;2.13;;;2.03;;
16510;SDS011;8368;48.772;8.754;2023-04-25T01:35:06;1.77;;;1.67;;
16510;SDS011;8368;48.772;8.754;2023-04-25T01:37:38;1.50;;;1.50;;
16510;SDS011;8368;48.772;8.754;2023-04-25T01:40:05;2.07;;;1.97;;
16510;SDS011;8368;48.772;8.754;2023-04-25T01:42:32;1.40;;;1.40;;
16510;SDS011;8368;48.772;8.754;2023-04-25T01:44:58;3.23;;;2.03;;
16510;SDS011;8368;48.772;8.754;2023-04-25T01:47:23;2.00;;;1.90;;
16510;SDS011;8368;48.772;8.754;2023-04-25T01:49:49;1.80;;;1.70;;
16510;SDS011;8368;48.772;8.754;2023-04-25T01:52:15;1.50;;;1.47;;
16510;SDS011;8368;48.772;8.754;2023-04-25T01:54:41;1.50;;;1.50;;
16510;SDS011;8368;48.772;8.754;2023-04-25T01:57:09;1.90;;;1.80;;
16510;SDS011;8368;48.772;8.754;2023-04-25T01:59:36;1.80;;;1.70;;
16510;SDS011;8368;48.772;8.754;2023-04-25T02:02:02;1.40;;;1.40;;
16510;SDS011;8368;48.772;8.754;2023-04-25T02:04:29;1.63;;;1.53;;
16510;SDS011;8368;48.772;8.754;2023-04-25T02:06:55;1.60;;;1.60;;
16510;SDS011;8368;48.772;8.754;2023-04-25T02:09:20;1.70;;;1.60;;
16510;SDS011;8368;48.772;8.754;2023-04-25T02:11:46;2.00;;;1.90;;
16510;SDS011;8368;48.772;8.754;2023-04-25T02:14:12;1.53;;;1.53;;
16510;SDS011;8368;48.772;8.754;2023-04-25T02:16:37;1.60;;;1.60;;
16510;SDS011;8368;48.772;8.754;2023-04-25T02:19:03;1.80;;;1.70;;
16510;SDS011;8368;48.772;8.754;2023-04-25T02:21:29;1.83;;;1.77;;
16510;SDS011;8368;48.772;8.754;2023-04-25T02:23:55;2.00;;;1.93;;
16510;SDS011;8368;48.772;8.754;2023-04-25T02:26:21;1.83;;;1.73;;
16510;SDS011;8368;48.772;8.754;2023-04-25T02:28:48;1.60;;;1.50;;
16510;SDS011;8368;48.772;8.754;2023-04-25T02:31:14;1.37;;;1.37;;
16510;SDS011;8368;48.772;8.754;2023-04-25T02:33:40;1.80;;;1.70;;
16510;SDS011;8368;48.772;8.754;2023-04-25T02:36:06;2.70;;;1.77;;
16510;SDS011;8368;48.772;8.754;2023-04-25T02:38:31;1.53;;;1.53;;
16510;SDS011;8368;48.772;8.754;2023-04-25T02:40:57;2.07;;;1.97;;
16510;SDS011;8368;48.772;8.754;2023-04-25T02:43:22;1.90;;;1.80;;
16510;SDS011;8368;48.772;8.754;2023-04-25T02:45:48;1.90;;;1.80;;
16510;SDS011;8368;48.772;8.754;2023-04-25T02:48:13;1.50;;;1.50;;
16510;SDS011;8368;48.772;8.754;2023-04-25T02:50:39;3.97;;;1.90;;
16510;SDS011;8368;48.772;8.754;2023-04-25T02:53:04;1.90;;;1.80;;
16510;SDS011;8368;48.772;8.754;2023-04-25T02:55:30;2.23;;;2.03;;
16510;SDS011;8368;48.772;8.754;2023-04-25T02:57:55;1.53;;;1.53;;
16510;SDS011;8368;48.772;8.754;2023-04-25T03:00:21;2.70;;;2.50;;
16510;SDS011;8368;48.772;8.754;2023-04-25T03:02:47;1.83;;;1.83;;
16510;SDS011;8368;48.772;8.754;2023-04-25T03:05:13;2.03;;;1.93;;
16510;SDS011;8368;48.772;8.754;2023-04-25T03:07:38;1.43;;;1.43;;
16510;SDS011;8368;48.772;8.754;2023-04-25T03:10:05;1.97;;;1.87;;
16510;SDS011;8368;48.772;8.754;2023-04-25T03:12:31;2.10;;;1.97;;
16510;SDS011;8368;48.772;8.754;2023-04-25T03:14:57;2.03;;;1.93;;
16510;SDS011;8368;48.772;8.754;2023-04-25T03:17:22;2.20;;;2.10;;
16510;SDS011;8368;48.772;8.754;2023-04-25T03:19:48;2.47;;;2.37;;
16510;SDS011;8368;48.772;8.754;2023-04-25T03:22:13;2.57;;;2.43;;
16510;SDS011;8368;48.772;8.754;2023-04-25T03:24:39;3.27;;;2.20;;
16510;SDS011;8368;48.772;8.754;2023-04-25T03:27:05;1.60;;;1.60;;
16510;SDS011;8368;48.772;8.754;2023-04-25T03:29:30;7.07;;;1.90;;
16510;SDS011;8368;48.772;8.754;2023-04-25T03:31:56;2.43;;;1.67;;
16510;SDS011;8368;48.772;8.754;2023-04-25T03:34:21;1.77;;;1.67;;
16510;SDS011;8368;48.772;8.754;2023-04-25T03:36:47;2.10;;;1.90;;
16510;SDS011;8368;48.772;8.754;2023-04-25T03:39:12;2.00;;;1.90;;
16510;SDS011;8368;48.772;8.754;2023-04-25T03:41:38;3.20;;;1.90;;
16510;SDS011;8368;48.772;8.754;2023-04-25T03:44:04;2.27;;;1.90;;
16510;SDS011;8368;48.772;8.754;2023-04-25T03:46:29;2.63;;;1.87;;
16510;SDS011;8368;48.772;8.754;2023-04-25T03:48:55;1.90;;;1.80;;
16510;SDS011;8368;48.772;8.754;2023-04-25T03:51:20;2.30;;;2.20;;
16510;SDS011;8368;48.772;8.754;2023-04-25T03:53:46;1.93;;;1.90;;
16510;SDS011;8368;48.772;8.754;2023-04-25T03:56:12;2.30;;;2.20;;
16510;SDS011;8368;48.772;8.754;2023-04-25T03:58:38;1.80;;;1.70;;
16510;SDS011;8368;48.772;8.754;2023-04-25T04:01:03;2.30;;;1.90;;
16510;SDS011;8368;48.772;8.754;2023-04-25T04:03:32;2.23;;;2.13;;
16510;SDS011;8368;48.772;8.754;2023-04-25T04:05:59;1.93;;;1.83;;
16510;SDS011;8368;48.772;8.754;2023-04-25T04:08:24;2.30;;;2.10;;
16510;SDS011;8368;48.772;8.754;2023-04-25T04:10:50;1.60;;;1.60;;
16510;SDS011;8368;48.772;8.754;2023-04-25T04:13:16;2.50;;;2.30;;
16510;SDS011;8368;48.772;8.754;2023-04-25T04:15:41;2.20;;;2.00;;
16510;SDS011;8368;48.772;8.754;2023-04-25T04:18:07;2.60;;;2.37;;
16510;SDS011;8368;48.772;8.754;2023-04-25T04:20:32;2.20;;;2.10;;
16510;SDS011;8368;48.772;8.754;2023-04-25T04:22:58;5.70;;;3.27;;
16510;SDS011;8368;48.772;8.754;2023-04-25T04:25:23;18.93;;;9.33;;
16510;SDS011;8368;48.772;8.754;2023-04-25T04:27:49;10.60;;;7.17;;
16510;SDS011;8368;48.772;8.754;2023-04-25T04:30:19;2.90;;;2.70;;
16510;SDS011;8368;48.772;8.754;2023-04-25T04:32:54;2.07;;;1.97;;
16510;SDS011;8368;48.772;8.754;2023-04-25T04:35:20;2.73;;;2.53;;
16510;SDS011;8368;48.772;8.754;2023-04-25T04:37:46;2.47;;;2.27;;
16510;SDS011;8368;48.772;8.754;2023-04-25T04:40:12;2.97;;;2.60;;
16510;SDS011;8368;48.772;8.754;2023-04-25T04:42:40;2.27;;;2.13;;
16510;SDS011;8368;48.772;8.754;2023-04-25T04:45:08;2.03;;;1.90;;
16510;SDS011;8368;48.772;8.754;2023-04-25T04:47:35;2.17;;;2.07;;
16510;SDS011;8368;48.772;8.754;2023-04-25T04:50:01;1.97;;;1.87;;
16510;SDS011;8368;48.772;8.754;2023-04-25T04:52:27;2.73;;;2.53;;
16510;SDS011;8368;48.772;8.754;2023-04-25T04:54:53;5.13;;;2.90;;
16510;SDS011;8368;48.772;8.754;2023-04-25T04:57:18;2.87;;;2.67;;
16510;SDS011;8368;48.772;8.754;2023-04-25T04:59:44;2.00;;;1.90;;
16510;SDS011;8368;48.772;8.754;2023-04-25T05:02:10;2.40;;;2.30;;
16510;SDS011;8368;48.772;8.754;2023-04-25T05:04:36;2.20;;;2.10;;
16510;SDS011;8368;48.772;8.754;2023-04-25T05:07:01;2.30;;;2.20;;
16510;SDS011;8368;48.772;8.754;2023-04-25T05:09:27;2.57;;;2.37;;
16510;SDS011;8368;48.772;8.754;2023-04-25T05:14:22;2.70;;;2.50;;
16510;SDS011;8368;48.772;8.754;2023-04-25T05:16:48;2.97;;;2.77;;
16510;SDS011;8368;48.772;8.754;2023-04-25T05:19:13;3.00;;;2.80;;
16510;SDS011;8368;48.772;8.754;2023-04-25T05:21:39;2.60;;;2.50;;
16510;SDS011;8368;48.772;8.754;2023-04-25T05:24:05;3.20;;;3.00;;
16510;SDS011;8368;48.772;8.754;2023-04-25T05:26:30;3.40;;;3.20;;
16510;SDS011;8368;48.772;8.754;2023-04-25T05:28:59;3.97;;;3.57;;
16510;SDS011;8368;48.772;8.754;2023-04-25T05:31:25;3.57;;;3.10;;
16510;SDS011;8368;48.772;8.754;2023-04-25T05:33:50;3.40;;;3.10;;
16510;SDS011;8368;48.772;8.754;2023-04-25T05:36:16;3.20;;;3.00;;
16510;SDS011;8368;48.772;8.754;2023-04-25T05:38:43;3.00;;;2.67;;
16510;SDS011;8368;48.772;8.754;2023-04-25T05:41:08;3.20;;;2.93;;
16510;SDS011;8368;48.772;8.754;2023-04-25T05:43:34;2.40;;;2.30;;
16510;SDS011;8368;48.772;8.754;2023-04-25T05:46:00;2.33;;;2.23;;
16510;SDS011;8368;48.772;8.754;2023-04-25T05:48:25;2.97;;;2.77;;
16510;SDS011;8368;48.772;8.754;2023-04-25T05:50:51;3.40;;;3.10;;
16510;SDS011;8368;48.772;8.754;2023-04-25T05:53:17;4.93;;;3.03;;
16510;SDS011;8368;48.772;8.754;2023-04-25T05:55:43;2.43;;;2.23;;
16510;SDS011;8368;48.772;8.754;2023-04-25T05:58:08;2.27;;;2.17;;
16510;SDS011;8368;48.772;8.754;2023-04-25T06:00:34;2.43;;;2.23;;
16510;SDS011;8368;48.772;8.754;2023-04-25T06:02:59;2.60;;;2.40;;
16510;SDS011;8368;48.772;8.754;2023-04-25T06:05:26;1.80;;;1.70;;
16510;SDS011;8368;48.772;8.754;2023-04-25T06:07:51;2.17;;;2.03;;
16510;SDS011;8368;48.772;8.754;2023-04-25T06:10:17;2.27;;;2.17;;
16510;SDS011;8368;48.772;8.754;2023-04-25T06:12:43;2.00;;;1.90;;
16510;SDS011;8368;48.772;8.754;2023-04-25T06:15:09;2.10;;;2.00;;
16510;SDS011;8368;48.772;8.754;2023-04-25T06:17:35;8.03;;;4.13;;
16510;SDS011;8368;48.772;8.754;2023-04-25T06:20:00;8.97;;;4.63;;
16510;SDS011;8368;48.772;8.754;2023-04-25T06:22:27;2.97;;;2.60;;
16510;SDS011;8368;48.772;8.754;2023-04-25T06:24:52;1.87;;;1.77;;
16510;SDS011;8368;48.772;8.754;2023-04-25T06:27:18;2.13;;;2.03;;
16510;SDS011;8368;48.772;8.754;2023-04-25T06:29:43;1.67;;;1.67;;
16510;SDS011;8368;48.772;8.754;2023-04-25T06:32:09;1.60;;;1.60;;
16510;SDS011;8368;48.772;8.754;2023-04-25T06:34:34;1.77;;;1.67;;
16510;SDS011;8368;48.772;8.754;2023-04-25T06:37:00;1.90;;;1.80;;
16510;SDS011;8368;48.772;8.754;2023-04-25T06:39:25;1.97;;;1.87;;
16510;SDS011;8368;48.772;8.754;2023-04-25T06:41:51;1.83;;;1.73;;
16510;SDS011;8368;48.772;8.754;2023-04-25T06:44:16;1.40;;;1.40;;
16510;SDS011;8368;48.772;8.754;2023-04-25T06:46:42;1.70;;;1.70;;
16510;SDS011;8368;48.772;8.754;2023-04-25T06:49:07;1.80;;;1.70;;
16510;SDS011;8368;48.772;8.754;2023-04-25T06:51:33;1.93;;;1.83;;
16510;SDS011;8368;48.772;8.754;2023-04-25T06:53:58;2.00;;;1.70;;
16510;SDS011;8368;48.772;8.754;2023-04-25T06:56:24;2.27;;;2.17;;
16510;SDS011;8368;48.772;8.754;2023-04-25T06:58:50;1.73;;;1.63;;
16510;SDS011;8368;48.772;8.754;2023-04-25T07:01:15;2.13;;;2.03;;
16510;SDS011;8368;48.772;8.754;2023-04-25T07:03:41;1.93;;;1.83;;
16510;SDS011;8368;48.772;8.754;2023-04-25T07:06:07;2.10;;;2.00;;
16510;SDS011;8368;48.772;8.754;2023-04-25T07:08:33;1.63;;;1.63;;
16510;SDS011;8368;48.772;8.754;2023-04-25T07:10:58;2.47;;;1.83;;
16510;SDS011;8368;48.772;8.754;2023-04-25T07:13:24;2.00;;;1.90;;
16510;SDS011;8368;48.772;8.754;2023-04-25T07:15:49;2.13;;;2.03;;
16510;SDS011;8368;48.772;8.754;2023-04-25T07:18:15;2.03;;;1.93;;
16510;SDS011;8368;48.772;8.754;2023-04-25T07:20:40;2.03;;;1.93;;
16510;SDS011;8368;48.772;8.754;2023-04-25T07:23:06;2.33;;;2.17;;
16510;SDS011;8368;48.772;8.754;2023-04-25T07:25:31;2.17;;;1.93;;
16510;SDS011;8368;48.772;8.754;2023-04-25T07:27:57;2.57;;;2.37;;
16510;SDS011;8368;48.772;8.754;2023-04-25T07:30:23;2.67;;;2.47;;
16510;SDS011;8368;48.772;8.754;2023-04-25T07:32:49;2.23;;;2.13;;
16510;SDS011;8368;48.772;8.754;2023-04-25T07:35:15;2.50;;;2.30;;
16510;SDS011;8368;48.772;8.754;2023-04-25T07:37:40;2.13;;;2.00;;
16510;SDS011;8368;48.772;8.754;2023-04-25T07:40:06;3.27;;;2.10;;
16510;SDS011;8368;48.772;8.754;2023-04-25T07:42:33;2.53;;;2.33;;
16510;SDS011;8368;48.772;8.754;2023-04-25T07:45:00;2.63;;;2.13;;
16510;SDS011;8368;48.772;8.754;2023-04-25T07:47:26;2.17;;;2.07;;
16510;SDS011;8368;48.772;8.754;2023-04-25T07:49:51;2.00;;;1.90;;
16510;SDS011;8368;48.772;8.754;2023-04-25T07:52:17;2.50;;;2.20;;
16510;SDS011;8368;48.772;8.754;2023-04-25T07:54:42;2.40;;;2.30;;
16510;SDS011;8368;48.772;8.754;2023-04-25T07:57:08;2.50;;;2.33;;
16510;SDS011;8368;48.772;8.754;2023-04-25T07:59:34;2.37;;;2.17;;
16510;SDS011;8368;48.772;8.754;2023-04-25T08:02:00;2.13;;;2.03;;
16510;SDS011;8368;48.772;8.754;2023-04-25T08:04:26;3.10;;;2.90;;
16510;SDS011;8368;48.772;8.754;2023-04-25T08:06:52;2.50;;;2.30;;
16510;SDS011;8368;48.772;8.754;2023-04-25T08:09:18;2.40;;;2.27;;
16510;SDS011;8368;48.772;8.754;2023-04-25T08:11:44;1.90;;;1.80;;
16510;SDS011;8368;48.772;8.754;2023-04-25T08:14:10;2.23;;;2.13;;
16510;SDS011;8368;48.772;8.754;2023-04-25T08:16:37;2.13;;;2.03;;
16510;SDS011;8368;48.772;8.754;2023-04-25T08:19:02;2.20;;;1.97;;
16510;SDS011;8368;48.772;8.754;2023-04-25T08:21:28;2.10;;;2.00;;
16510;SDS011;8368;48.772;8.754;2023-04-25T08:23:54;1.97;;;1.87;;
16510;SDS011;8368;48.772;8.754;2023-04-25T08:26:20;2.10;;;2.00;;
16510;SDS011;8368;48.772;8.754;2023-04-25T08:28:45;2.10;;;2.00;;
16510;SDS011;8368;48.772;8.754;2023-04-25T08:31:11;2.27;;;2.00;;
16510;SDS011;8368;48.772;8.754;2023-04-25T08:33:37;2.00;;;1.90;;
16510;SDS011;8368;48.772;8.754;2023-04-25T08:36:02;2.00;;;1.90;;
16510;SDS011;8368;48.772;8.754;2023-04-25T08:38:28;1.90;;;1.80;;
16510;SDS011;8368;48.772;8.754;2023-04-25T08:40:54;1.60;;;1.53;;
16510;SDS011;8368;48.772;8.754;2023-04-25T08:43:21;1.20;;;1.20;;
16510;SDS011;8368;48.772;8.754;2023-04-25T08:45:49;1.00;;;1.00;;
16510;SDS011;8368;48.772;8.754;2023-04-25T08:48:18;0.77;;;0.77;;
16510;SDS011;8368;48.772;8.754;2023-04-25T08:50:51;1.50;;;1.13;;
16510;SDS011;8368;48.772;8.754;2023-04-25T08:53:27;0.50;;;0.50;;
16510;SDS011;8368;48.772;8.754;2023-04-25T08:55:55;0.50;;;0.50;;
16510;SDS011;8368;48.772;8.754;2023-04-25T08:58:21;0.50;;;0.50;;
16510;SDS011;8368;48.772;8.754;2023-04-25T09:00:48;0.50;;;0.50;;
16510;SDS011;8368;48.772;8.754;2023-04-25T09:03:14;1.17;;;0.60;;
16510;SDS011;8368;48.772;8.754;2023-04-25T09:05:40;0.80;;;0.80;;
16510;SDS011;8368;48.772;8.754;2023-04-25T09:08:06;0.70;;;0.70;;
16510;SDS011;8368;48.772;8.754;2023-04-25T09:10:33;0.50;;;0.50;;
16510;SDS011;8368;48.772;8.754;2023-04-25T09:15:31;0.70;;;0.70;;
16510;SDS011;8368;48.772;8.754;2023-04-25T09:17:58;0.40;;;0.40;;
16510;SDS011;8368;48.772;8.754;2023-04-25T09:20:24;0.40;;;0.40;;
16510;SDS011;8368;48.772;8.754;2023-04-25T09:23:00;0.30;;;0.30;;
16510;SDS011;8368;48.772;8.754;2023-04-25T09:25:33;0.40;;;0.40;;
16510;SDS011;8368;48.772;8.754;2023-04-25T09:28:05;0.40;;;0.40;;
16510;SDS011;8368;48.772;8.754;2023-04-25T09:30:32;0.50;;;0.50;;
16510;SDS011;8368;48.772;8.754;2023-04-25T09:33:09;0.50;;;0.50;;
16510;SDS011;8368;48.772;8.754;2023-04-25T09:35:36;0.30;;;0.30;;
16510;SDS011;8368;48.772;8.754;2023-04-25T09:38:08;0.40;;;0.40;;
16510;SDS011;8368;48.772;8.754;2023-04-25T09:40:39;0.50;;;0.50;;
16510;SDS011;8368;48.772;8.754;2023-04-25T09:43:08;0.40;;;0.40;;
16510;SDS011;8368;48.772;8.754;2023-04-25T09:45:40;0.33;;;0.33;;
16510;SDS011;8368;48.772;8.754;2023-04-25T09:48:10;0.40;;;0.40;;
16510;SDS011;8368;48.772;8.754;2023-04-25T09:50:36;0.40;;;0.40;;
16510;SDS011;8368;48.772;8.754;2023-04-25T09:53:03;0.30;;;0.30;;
16510;SDS011;8368;48.772;8.754;2023-04-25T09:55:32;0.63;;;0.30;;
16510;SDS011;8368;48.772;8.754;2023-04-25T09:58:01;0.40;;;0.40;;
16510;SDS011;8368;48.772;8.754;2023-04-25T10:00:33;0.20;;;0.20;;
16510;SDS011;8368;48.772;8.754;2023-04-25T10:03:00;0.20;;;0.20;;
16510;SDS011;8368;48.772;8.754;2023-04-25T10:05:30;0.30;;;0.30;;
16510;SDS011;8368;48.772;8.754;2023-04-25T10:07:59;0.63;;;0.60;;
16510;SDS011;8368;48.772;8.754;2023-04-25T10:10:28;0.40;;;0.40;;
16510;SDS011;8368;48.772;8.754;2023-04-25T10:12:57;0.20;;;0.20;;
16510;SDS011;8368;48.772;8.754;2023-04-25T10:15:23;0.50;;;0.50;;
16510;SDS011;8368;48.772;8.754;2023-04-25T10:17:50;0.40;;;0.40;;
16510;SDS011;8368;48.772;8.754;2023-04-25T10:20:15;0.30;;;0.30;;
16510;SDS011;8368;48.772;8.754;2023-04-25T10:22:42;0.30;;;0.30;;
16510;SDS011;8368;48.772;8.754;2023-04-25T10:25:10;0.23;;;0.23;;
16510;SDS011;8368;48.772;8.754;2023-04-25T10:27:36;0.23;;;0.23;;
16510;SDS011;8368;48.772;8.754;2023-04-25T10:32:30;0.23;;;0.23;;
16510;SDS011;8368;48.772;8.754;2023-04-25T10:34:57;0.20;;;0.20;;
16510;SDS011;8368;48.772;8.754;2023-04-25T10:37:22;0.10;;;0.10;;
16510;SDS011;8368;48.772;8.754;2023-04-25T10:39:49;0.20;;;0.20;;
16510;SDS011;8368;48.772;8.754;2023-04-25T10:42:15;0.20;;;0.20;;
16510;SDS011;8368;48.772;8.754;2023-04-25T10:44:40;0.20;;;0.20;;
16510;SDS011;8368;48.772;8.754;2023-04-25T10:47:35;0.17;;;0.17;;
16510;SDS011;8368;48.772;8.754;2023-04-25T10:50:08;0.23;;;0.23;;
16510;SDS011;8368;48.772;8.754;2023-04-25T10:52:34;0.63;;;0.63;;
16510;SDS011;8368;48.772;8.754;2023-04-25T10:54:59;0.70;;;0.70;;
16510;SDS011;8368;48.772;8.754;2023-04-25T10:57:29;0.87;;;0.87;;
16510;SDS011;8368;48.772;8.754;2023-04-25T11:02:30;1.33;;;1.33;;
16510;SDS011;8368;48.772;8.754;2023-04-25T11:04:56;1.70;;;1.60;;
16510;SDS011;8368;48.772;8.754;2023-04-25T11:09:56;1.93;;;1.83;;
16510;SDS011;8368;48.772;8.754;2023-04-25T11:12:22;2.10;;;2.00;;
16510;SDS011;8368;48.772;8.754;2023-04-25T11:14:49;2.80;;;2.60;;
16510;SDS011;8368;48.772;8.754;2023-04-25T11:17:15;1.90;;;1.80;;
16510;SDS011;8368;48.772;8.754;2023-04-25T11:19:40;2.00;;;1.90;;
16510;SDS011;8368;48.772;8.754;2023-04-25T11:22:06;3.07;;;1.83;;
16510;SDS011;8368;48.772;8.754;2023-04-25T11:24:33;1.97;;;1.87;;
16510;SDS011;8368;48.772;8.754;2023-04-25T11:27:00;1.53;;;1.47;;
16510;SDS011;8368;48.772;8.754;2023-04-25T11:29:29;3.57;;;2.17;;
16510;SDS011;8368;48.772;8.754;2023-04-25T11:31:56;1.97;;;1.87;;
16510;SDS011;8368;48.772;8.754;2023-04-25T11:34:25;1.90;;;1.80;;
16510;SDS011;8368;48.772;8.754;2023-04-25T11:36:58;1.20;;;1.20;;
16510;SDS011;8368;48.772;8.754;2023-04-25T11:39:25;1.40;;;1.30;;
16510;SDS011;8368;48.772;8.754;2023-04-25T11:41:51;1.30;;;1.30;;
16510;SDS011;8368;48.772;8.754;2023-04-25T11:44:18;1.13;;;1.13;;
16510;SDS011;8368;48.772;8.754;2023-04-25T11:46:44;1.40;;;1.30;;
16510;SDS011;8368;48.772;8.754;2023-04-25T11:49:11;1.60;;;1.50;;
16510;SDS011;8368;48.772;8.754;2023-04-25T11:51:40;1.03;;;1.03;;
16510;SDS011;8368;48.772;8.754;2023-04-25T11:54:06;1.27;;;1.27;;
16510;SDS011;8368;48.772;8.754;2023-04-25T11:56:32;1.20;;;1.20;;
16510;SDS011;8368;48.772;8.754;2023-04-25T11:58:58;1.10;;;1.10;;
16510;SDS011;8368;48.772;8.754;2023-04-25T12:01:26;1.37;;;1.27;;
16510;SDS011;8368;48.772;8.754;2023-04-25T12:04:18;1.00;;;1.00;;
16510;SDS011;8368;48.772;8.754;2023-04-25T12:06:46;1.20;;;1.20;;
16510;SDS011;8368;48.772;8.754;2023-04-25T12:09:13;1.33;;;1.23;;
16510;SDS011;8368;48.772;8.754;2023-04-25T12:11:44;1.00;;;1.00;;
16510;SDS011;8368;48.772;8.754;2023-04-25T12:14:11;1.07;;;1.07;;
16510;SDS011;8368;48.772;8.754;2023-04-25T12:16:41;1.13;;;1.13;;
16510;SDS011;8368;48.772;8.754;2023-04-25T12:19:07;1.20;;;1.20;;
16510;SDS011;8368;48.772;8.754;2023-04-25T12:21:32;2.03;;;1.20;;
16510;SDS011;8368;48.772;8.754;2023-04-25T12:24:14;1.00;;;1.00;;
16510;SDS011;8368;48.772;8.754;2023-04-25T12:26:50;1.20;;;1.20;;
16510;SDS011;8368;48.772;8.754;2023-04-25T12:29:29;1.23;;;1.23;;
16510;SDS011;8368;48.772;8.754;2023-04-25T12:31:57;1.37;;;1.37;;
16510;SDS011;8368;48.772;8.754;2023-04-25T12:34:23;1.37;;;1.37;;
16510;SDS011;8368;48.772;8.754;2023-04-25T12:36:49;1.37;;;1.37;;
16510;SDS011;8368;48.772;8.754;2023-04-25T12:39:22;2.20;;;2.10;;
16510;SDS011;8368;48.772;8.754;2023-04-25T12:41:49;2.07;;;1.97;;
16510;SDS011;8368;48.772;8.754;2023-04-25T12:44:15;2.10;;;2.00;;
16510;SDS011;8368;48.772;8.754;2023-04-25T12:46:42;1.93;;;1.83;;
16510;SDS011;8368;48.772;8.754;2023-04-25T12:49:07;2.00;;;1.90;;
16510;SDS011;8368;48.772;8.754;2023-04-25T12:51:37;2.37;;;2.27;;
16510;SDS011;8368;48.772;8.754;2023-04-25T12:54:03;2.83;;;2.63;;
16510;SDS011;8368;48.772;8.754;2023-04-25T12:56:30;2.33;;;2.23;;
16510;SDS011;8368;48.772;8.754;2023-04-25T12:58:56;2.70;;;2.20;;
16510;SDS011;8368;48.772;8.754;2023-04-25T13:01:22;2.50;;;2.30;;
16510;SDS011;8368;48.772;8.754;2023-04-25T13:03:48;2.53;;;2.37;;
16510;SDS011;8368;48.772;8.754;2023-04-25T13:06:15;2.30;;;2.20;;
16510;SDS011;8368;48.772;8.754;2023-04-25T13:08:41;2.40;;;2.30;;
16510;SDS011;8368;48.772;8.754;2023-04-25T13:11:07;2.43;;;2.33;;
16510;SDS011;8368;48.772;8.754;2023-04-25T13:13:33;2.90;;;2.70;;
16510;SDS011;8368;48.772;8.754;2023-04-25T13:16:00;2.73;;;2.47;;
16510;SDS011;8368;48.772;8.754;2023-04-25T13:18:29;2.40;;;2.20;;
16510;SDS011;8368;48.772;8.754;2023-04-25T13:20:55;3.53;;;2.53;;
16510;SDS011;8368;48.772;8.754;2023-04-25T13:23:21;2.53;;;2.37;;
16510;SDS011;8368;48.772;8.754;2023-04-25T13:25:48;2.50;;;2.17;;
16510;SDS011;8368;48.772;8.754;2023-04-25T13:28:13;2.60;;;2.50;;
16510;SDS011;8368;48.772;8.754;2023-04-25T13:30:39;2.40;;;2.30;;
16510;SDS011;8368;48.772;8.754;2023-04-25T13:33:05;2.37;;;2.20;;
16510;SDS011;8368;48.772;8.754;2023-04-25T13:35:31;2.53;;;2.37;;
16510;SDS011;8368;48.772;8.754;2023-04-25T13:37:58;1.80;;;1.70;;
16510;SDS011;8368;48.772;8.754;2023-04-25T13:40:24;1.93;;;1.80;;
16510;SDS011;8368;48.772;8.754;2023-04-25T13:42:50;1.60;;;1.50;;
16510;SDS011;8368;48.772;8.754;2023-04-25T13:45:16;1.73;;;1.70;;
16510;SDS011;8368;48.772;8.754;2023-04-25T13:47:41;1.70;;;1.70;;
16510;SDS011;8368;48.772;8.754;2023-04-25T13:50:07;1.60;;;1.50;;
16510;SDS011;8368;48.772;8.754;2023-04-25T13:52:33;1.17;;;1.13;;
16510;SDS011;8368;48.772;8.754;2023-04-25T13:54:59;1.43;;;1.20;;
16510;SDS011;8368;48.772;8.754;2023-04-25T13:57:25;1.40;;;1.40;;
16510;SDS011;8368;48.772;8.754;2023-04-25T13:59:50;1.47;;;1.37;;
16510;SDS011;8368;48.772;8.754;2023-04-25T14:02:16;1.50;;;1.40;;
16510;SDS011;8368;48.772;8.754;2023-04-25T14:04:42;1.43;;;1.37;;
16510;SDS011;8368;48.772;8.754;2023-04-25T14:07:08;1.13;;;1.13;;
16510;SDS011;8368;48.772;8.754;2023-04-25T14:09:34;2.40;;;1.47;;
16510;SDS011;8368;48.772;8.754;2023-04-25T14:11:59;1.20;;;1.20;;
16510;SDS011;8368;48.772;8.754;2023-04-25T14:14:25;1.43;;;1.43;;
16510;SDS011;8368;48.772;8.754;2023-04-25T14:16:51;1.40;;;1.40;;
16510;SDS011;8368;48.772;8.754;2023-04-25T14:19:18;1.80;;;1.70;;
16510;SDS011;8368;48.772;8.754;2023-04-25T14:21:45;1.33;;;1.20;;
16510;SDS011;8368;48.772;8.754;2023-04-25T14:24:11;1.37;;;1.37;;
16510;SDS011;8368;48.772;8.754;2023-04-25T14:26:37;1.60;;;1.50;;
16510;SDS011;8368;48.772;8.754;2023-04-25T14:29:04;1.43;;;1.43;;
16510;SDS011;8368;48.772;8.754;2023-04-25T14:31:33;1.37;;;1.37;;
16510;SDS011;8368;48.772;8.754;2023-04-25T14:34:00;1.57;;;1.53;;
16510;SDS011;8368;48.772;8.754;2023-04-25T14:36:27;1.17;;;1.13;;
16510;SDS011;8368;48.772;8.754;2023-04-25T14:38:53;1.07;;;1.07;;
16510;SDS011;8368;48.772;8.754;2023-04-25T14:41:19;1.30;;;1.30;;
16510;SDS011;8368;48.772;8.754;2023-04-25T14:43:46;1.40;;;1.40;;
16510;SDS011;8368;48.772;8.754;2023-04-25T14:46:11;1.13;;;1.13;;
16510;SDS011;8368;48.772;8.754;2023-04-25T14:48:37;1.40;;;1.30;;
16510;SDS011;8368;48.772;8.754;2023-04-25T14:51:03;1.20;;;1.20;;
16510;SDS011;8368;48.772;8.754;2023-04-25T14:53:29;1.13;;;1.13;;
16510;SDS011;8368;48.772;8.754;2023-04-25T14:55:56;1.43;;;1.43;;
16510;SDS011;8368;48.772;8.754;2023-04-25T14:58:21;1.40;;;1.30;;
16510;SDS011;8368;48.772;8.754;2023-04-25T15:00:47;1.47;;;1.47;;
16510;SDS011;8368;48.772;8.754;2023-04-25T15:03:13;1.50;;;1.50;;
16510;SDS011;8368;48.772;8.754;2023-04-25T15:05:41;1.67;;;1.50;;
16510;SDS011;8368;48.772;8.754;2023-04-25T15:08:07;1.47;;;1.47;;
16510;SDS011;8368;48.772;8.754;2023-04-25T15:10:33;1.30;;;1.30;;